^^
Station Historical Data
Daily Summary for January 4, 2018 Units:  English    Metric   Both
« Previous Day
Next Day »
Daily Weekly Monthly Yearly Custom
  High: Low: Average:
Temperature: TemperatureC °F 1.1 °F 1.8 °F
Dew Point: DewpointC °F 0.1 °F 0.9 °F
Humidity: Humidity% 93% 93%
Wind Speed: WindSpeedKMHmph 0.0mph 3.3mph
Wind Gust: WindSpeedGustKMHmph - -
Wind- - ESE
Pressure: PressurehPa in 992.8 in -
Precipitation: 3.3 in    
Historical Graphs
 
 
Tabular Data for January 4, 2018
Time Temperature Dew Point Pressure Wind Wind Speed Wind Gust Humidity Rainfall Rate (Hourly) solar Conditions
TemperatureC °F DewpointC °F PressurehPa in Calm     Humidity% HourlyPrecipMM in SoftwareType W/m2 Conditions
00:01 1.2 °F 0.2 °F 998.5 in ESE 4.2 mph 6.4 mph 93% 0.0 in WeatherDisplay:10.37 W/m2 RA
00:05 1.2 °F 0.2 °F 998.5 in ESE 3.7 mph 13.0 mph 93% 0.0 in WeatherDisplay:10.37 W/m2 RA
00:10 1.2 °F 0.2 °F 998.5 in ESE 2.1 mph   93% 0.0 in WeatherDisplay:10.37 W/m2 FEW
00:15 1.2 °F 0.2 °F 998.5 in East 4.7 mph 9.3 mph 93% 0.0 in WeatherDisplay:10.37 W/m2 FEW
00:20 1.2 °F 0.2 °F 998.5 in Calm     93% 0.0 in WeatherDisplay:10.37 W/m2 FEW
00:25 1.2 °F 0.2 °F 998.5 in Calm     93% 0.0 in WeatherDisplay:10.37 W/m2 FEW
00:30 1.2 °F 0.3 °F 998.5 in ESE 4.8 mph 13.0 mph 94% 0.0 in WeatherDisplay:10.37 W/m2 FEW
00:32 1.2 °F 0.4 °F 998.5 in East 6.3 mph 13.0 mph 94% 0.0 in WeatherDisplay:10.37 W/m2 FEW
00:38 1.2 °F 0.3 °F 998.5 in ESE 2.4 mph 9.3 mph 94% 0.0 in WeatherDisplay:10.37 W/m2 FEW
00:43 1.2 °F 0.4 °F 998.2 in Calm     94% 0.0 in WeatherDisplay:10.37 W/m2 FEW
00:48 1.2 °F 0.4 °F 998.2 in ENE 4.8 mph 11.1 mph 94% 0.0 in WeatherDisplay:10.37 W/m2 FEW
00:50 1.2 °F 0.4 °F 998.2 in ENE 3.4 mph 5.6 mph 94% 0.0 in WeatherDisplay:10.37 W/m2 FEW
00:55 1.3 °F 0.4 °F 998.2 in Calm     94% 0.0 in WeatherDisplay:10.37 W/m2 FEW
01:06 1.3 °F 0.4 °F 998.2 in Calm   1.6 mph 94% 0.0 in WeatherDisplay:10.37 W/m2 FEW
01:07 1.3 °F 0.4 °F 998.2 in ENE 1.3 mph 3.7 mph 94% 0.0 in WeatherDisplay:10.37 W/m2 FEW
01:13 1.3 °F 0.4 °F 998.2 in Calm     94% 0.0 in WeatherDisplay:10.37 W/m2 FEW
01:15 1.3 °F 0.4 °F 998.2 in Calm     94% 0.0 in WeatherDisplay:10.37 W/m2 FEW
01:25 1.3 °F 0.4 °F 997.9 in ENE 0.8 mph 5.6 mph 94% 0.0 in WeatherDisplay:10.37 W/m2 FEW
01:26 1.3 °F 0.4 °F 997.9 in Calm     94% 0.0 in WeatherDisplay:10.37 W/m2 FEW
01:31 1.3 °F 0.4 °F 997.9 in ENE 0.2 mph 1.9 mph 94% 0.0 in WeatherDisplay:10.37 W/m2 FEW
01:49 1.3 °F 0.4 °F 997.9 in Calm     94% 0.0 in WeatherDisplay:10.37 W/m2 FEW
02:11 1.3 °F 0.4 °F 997.5 in Calm   3.7 mph 94% 0.0 in WeatherDisplay:10.37 W/m2 FEW
02:19 1.3 °F 0.5 °F 997.5 in ENE 0.2 mph 6.4 mph 94% 0.0 in WeatherDisplay:10.37 W/m2 FEW
02:30 1.3 °F 0.3 °F 997.5 in Calm   7.4 mph 93% 0.0 in WeatherDisplay:10.37 W/m2 FEW
02:34 1.3 °F 0.3 °F 997.5 in Calm     93% 0.0 in WeatherDisplay:10.37 W/m2 FEW
02:39 1.3 °F 0.3 °F 997.5 in ENE 0.8 mph 3.7 mph 93% 0.0 in WeatherDisplay:10.37 W/m2 FEW
02:44 1.3 °F 0.3 °F 997.5 in Calm     93% 0.0 in WeatherDisplay:10.37 W/m2 FEW
02:47 1.4 °F 0.4 °F 997.5 in Calm     93% 0.0 in WeatherDisplay:10.37 W/m2 FEW
02:52 1.4 °F 0.4 °F 997.5 in ENE 3.2 mph 5.6 mph 93% 0.0 in WeatherDisplay:10.37 W/m2 FEW
02:53 1.4 °F 0.4 °F 997.5 in East 4.0 mph 5.6 mph 93% 0.0 in WeatherDisplay:10.37 W/m2 FEW
02:58 1.4 °F 0.4 °F 997.5 in Calm     93% 0.0 in WeatherDisplay:10.37 W/m2 FEW
03:03 1.4 °F 0.4 °F 997.5 in ENE 2.3 mph 3.7 mph 93% 0.0 in WeatherDisplay:10.37 W/m2 FEW
03:08 1.4 °F 0.4 °F 997.5 in Calm     93% 0.0 in WeatherDisplay:10.37 W/m2 FEW
03:10 1.4 °F 0.4 °F 997.5 in ENE 2.9 mph 5.6 mph 93% 0.0 in WeatherDisplay:10.37 W/m2 FEW
03:16 1.5 °F 0.5 °F 997.5 in Calm     93% 0.0 in WeatherDisplay:10.37 W/m2 FEW
03:21 1.5 °F 0.5 °F 997.5 in Calm     93% 0.0 in WeatherDisplay:10.37 W/m2 FEW
03:36 1.7 °F 0.7 °F 997.5 in ESE 1.1 mph 11.3 mph 93% 0.0 in WeatherDisplay:10.37 W/m2 FEW
03:37 1.7 °F 0.7 °F 997.5 in ESE 4.2 mph 11.1 mph 93% 0.0 in WeatherDisplay:10.37 W/m2 FEW
03:38 1.7 °F 0.7 °F 997.5 in East 4.3 mph 5.6 mph 93% 0.0 in WeatherDisplay:10.37 W/m2 FEW
03:44 1.7 °F 0.7 °F 997.5 in Calm     93% 0.0 in WeatherDisplay:10.37 W/m2 FEW
03:49 1.8 °F 0.8 °F 997.5 in East 2.7 mph 9.3 mph 93% 0.0 in WeatherDisplay:10.37 W/m2 FEW
03:54 1.8 °F 0.8 °F 997.5 in ESE 6.0 mph 11.1 mph 93% 0.0 in WeatherDisplay:10.37 W/m2 FEW
03:59 1.8 °F 0.8 °F 997.5 in East 5.3 mph 9.3 mph 93% 0.0 in WeatherDisplay:10.37 W/m2 FEW
04:01 1.8 °F 0.8 °F 997.5 in East 4.2 mph 6.4 mph 93% 0.0 in WeatherDisplay:10.37 W/m2 FEW
04:15 1.8 °F 0.8 °F 997.5 in East 5.6 mph 13.0 mph 93% 0.0 in WeatherDisplay:10.37 W/m2 FEW
04:17 1.8 °F 0.8 °F 997.5 in ENE 6.6 mph 14.8 mph 93% 0.0 in WeatherDisplay:10.37 W/m2 FEW
04:24 1.8 °F 0.8 °F 997.9 in ESE 4.7 mph 11.1 mph 93% 0.0 in WeatherDisplay:10.37 W/m2 FEW
04:29 1.8 °F 0.8 °F 997.9 in East 2.3 mph 5.6 mph 93% 0.0 in WeatherDisplay:10.37 W/m2 FEW
04:32 1.8 °F 0.8 °F 997.9 in East 1.4 mph 5.6 mph 93% 0.3 in WeatherDisplay:10.37 W/m2 RA
04:38 1.7 °F 0.7 °F 997.9 in Calm     93% 0.3 in WeatherDisplay:10.37 W/m2 RA
04:43 1.6 °F 0.6 °F 997.9 in ENE 7.7 mph 13.0 mph 93% 0.5 in WeatherDisplay:10.37 W/m2 RA
04:48 1.5 °F 0.5 °F 997.9 in SE 2.1 mph 6.4 mph 93% 0.5 in WeatherDisplay:10.37 W/m2 RA
04:56 1.3 °F 0.5 °F 997.9 in ENE 1.4 mph 5.6 mph 94% 0.5 in WeatherDisplay:10.37 W/m2 RA
05:01 1.2 °F 0.4 °F 997.9 in East 3.4 mph 5.6 mph 94% 0.5 in WeatherDisplay:10.37 W/m2 RA
05:06 1.2 °F 0.2 °F 997.5 in Calm     93% 0.5 in WeatherDisplay:10.37 W/m2 FEW
05:11 1.1 °F 0.1 °F 997.9 in ENE 0.3 mph 3.2 mph 93% 0.5 in WeatherDisplay:10.37 W/m2 FEW
05:16 1.1 °F 0.1 °F 997.9 in ENE 3.2 mph 5.6 mph 93% 0.5 in WeatherDisplay:10.37 W/m2 FEW
05:21 1.1 °F 0.1 °F 997.9 in East 1.6 mph 7.4 mph 93% 0.5 in WeatherDisplay:10.37 W/m2 FEW
05:26 1.1 °F 0.1 °F 997.9 in Calm   3.7 mph 93% 0.8 in WeatherDisplay:10.37 W/m2 RA
05:31 1.1 °F 0.1 °F 997.5 in Calm   1.9 mph 93% 0.5 in WeatherDisplay:10.37 W/m2 RA
05:36 1.1 °F 0.1 °F 997.5 in East 3.9 mph 9.3 mph 93% 0.5 in WeatherDisplay:10.37 W/m2 FEW
05:38 1.1 °F 0.1 °F 997.5 in NNE 5.1 mph 14.8 mph 93% 0.5 in WeatherDisplay:10.37 W/m2 FEW
05:41 1.1 °F 0.1 °F 997.5 in East 1.4 mph 4.8 mph 93% 0.5 in WeatherDisplay:10.37 W/m2 FEW
05:46 1.1 °F 0.1 °F 997.5 in Calm   3.7 mph 93% 0.5 in WeatherDisplay:10.37 W/m2 FEW
05:51 1.1 °F 0.1 °F 997.5 in ESE 6.0 mph 13.0 mph 93% 0.5 in WeatherDisplay:10.37 W/m2 FEW
05:55 1.2 °F 0.2 °F 997.5 in ESE 5.8 mph 16.7 mph 93% 0.3 in WeatherDisplay:10.37 W/m2 FEW
06:00 1.2 °F 0.2 °F 997.5 in ENE 3.2 mph 9.3 mph 93% 0.3 in WeatherDisplay:10.37 W/m2 FEW
06:14 1.3 °F 0.3 °F 997.5 in ESE 7.7 mph 14.8 mph 93% 0.3 in WeatherDisplay:10.37 W/m2 FEW
06:15 1.3 °F 0.3 °F 997.5 in ESE 1.4 mph 14.8 mph 93% 0.3 in WeatherDisplay:10.37 W/m2 FEW
06:16 1.3 °F 0.3 °F 997.5 in Calm     93% 0.3 in WeatherDisplay:10.37 W/m2 FEW
06:17 1.3 °F 0.3 °F 997.5 in NE 2.1 mph 7.4 mph 93% 0.3 in WeatherDisplay:10.37 W/m2 FEW
06:18 1.3 °F 0.3 °F 997.9 in East 11.3 mph 18.5 mph 93% 0.3 in WeatherDisplay:10.37 W/m2 FEW
06:19 1.3 °F 0.3 °F 997.5 in ENE 5.0 mph 13.0 mph 93% 0.3 in WeatherDisplay:10.37 W/m2 FEW
06:21 1.3 °F 0.3 °F 997.5 in East 4.2 mph 6.4 mph 93% 0.3 in WeatherDisplay:10.37 W/m2 FEW
06:22 1.3 °F 0.3 °F 997.5 in ENE 5.3 mph 9.3 mph 93% 0.0 in WeatherDisplay:10.37 W/m2 FEW
06:25 1.3 °F 0.3 °F 997.5 in East 5.8 mph 9.3 mph 93% 0.0 in WeatherDisplay:10.37 W/m2 FEW
06:26 1.3 °F 0.3 °F 997.5 in East 0.2 mph 6.4 mph 93% 0.0 in WeatherDisplay:10.37 W/m2 FEW
06:27 1.3 °F 0.3 °F 997.5 in ENE 5.8 mph 9.3 mph 93% 0.0 in WeatherDisplay:10.37 W/m2 FEW
06:28 1.3 °F 0.3 °F 997.5 in ENE 6.4 mph 14.8 mph 93% 0.0 in WeatherDisplay:10.37 W/m2 FEW
06:33 1.3 °F 0.3 °F 997.5 in ESE 2.9 mph 9.3 mph 93% 0.0 in WeatherDisplay:10.37 W/m2 FEW
06:38 1.3 °F 0.3 °F 997.5 in ESE 4.0 mph 11.1 mph 93% 0.0 in WeatherDisplay:10.37 W/m2 FEW
06:44 1.3 °F 0.3 °F 997.9 in NE 7.7 mph 13.0 mph 93% 0.0 in WeatherDisplay:10.37 W/m2 FEW
06:49 1.3 °F 0.3 °F 997.5 in ENE 0.6 mph 5.6 mph 93% 0.0 in WeatherDisplay:10.37 W/m2 FEW
06:54 1.3 °F 0.3 °F 997.5 in ESE 3.1 mph 6.4 mph 93% 0.0 in WeatherDisplay:10.37 W/m2 FEW
06:55 1.3 °F 0.3 °F 997.5 in ESE 5.3 mph 11.1 mph 93% 0.0 in WeatherDisplay:10.37 W/m2 FEW
07:00 1.3 °F 0.3 °F 997.5 in ENE 3.1 mph 5.6 mph 93% 0.0 in WeatherDisplay:10.37 W/m2 FEW
07:05 1.3 °F 0.3 °F 997.5 in Calm     93% 0.0 in WeatherDisplay:10.37 W/m2 FEW
07:06 1.3 °F 0.3 °F 997.5 in ENE 3.7 mph 9.3 mph 93% 0.0 in WeatherDisplay:10.37 W/m2 FEW
07:10 1.3 °F 0.3 °F 997.5 in East 6.9 mph 18.5 mph 93% 0.0 in WeatherDisplay:10.37 W/m2 FEW
07:16 1.3 °F 0.3 °F 997.2 in ENE 6.3 mph 13.0 mph 93% 0.0 in WeatherDisplay:10.37 W/m2 FEW
07:19 1.3 °F 0.3 °F 997.5 in ESE 0.6 mph 11.1 mph 93% 0.0 in WeatherDisplay:10.37 W/m2 FEW
07:24 1.3 °F 0.3 °F 997.2 in ENE 4.3 mph 13.0 mph 93% 0.0 in WeatherDisplay:10.37 W/m2 FEW
07:29 1.3 °F 0.3 °F 997.2 in ENE 6.4 mph 13.0 mph 93% 0.0 in WeatherDisplay:10.37 W/m2 FEW
07:34 1.3 °F 0.3 °F 997.2 in East 4.8 mph 13.0 mph 93% 0.0 in WeatherDisplay:10.37 W/m2 FEW
07:36 1.3 °F 0.3 °F 997.2 in East 3.2 mph 6.4 mph 93% 0.0 in WeatherDisplay:10.37 W/m2 FEW
07:40 1.3 °F 0.3 °F 997.2 in Calm     93% 0.0 in WeatherDisplay:10.37 W/m2 FEW
07:45 1.3 °F 0.3 °F 997.2 in ESE 6.8 mph 11.3 mph 93% 0.0 in WeatherDisplay:10.37 W/m2 FEW
07:47 1.3 °F 0.3 °F 997.2 in ESE 2.6 mph 9.3 mph 93% 0.0 in WeatherDisplay:10.37 W/m2 FEW
07:50 1.3 °F 0.3 °F 997.2 in Calm   5.6 mph 93% 0.0 in WeatherDisplay:10.37 W/m2 FEW
07:54 1.3 °F 0.3 °F 997.2 in ESE 3.5 mph 13.0 mph 93% 0.0 in WeatherDisplay:10.37 W/m2 FEW
08:02 1.3 °F 0.3 °F 997.2 in ESE 0.3 mph 5.6 mph 93% 0.0 in WeatherDisplay:10.37 W/m2 FEW
08:04 1.3 °F 0.3 °F 997.2 in Calm     93% 0.0 in WeatherDisplay:10.37 W/m2 FEW
08:07 1.3 °F 0.3 °F 997.2 in Calm     93% 0.0 in WeatherDisplay:10.37 W/m2 FEW
08:12 1.3 °F 0.3 °F 997.2 in East 3.9 mph 5.6 mph 93% 0.0 in WeatherDisplay:10.37 W/m2 FEW
08:13 1.3 °F 0.3 °F 997.2 in East 6.0 mph 9.3 mph 93% 0.0 in WeatherDisplay:10.37 W/m2 FEW
08:18 1.3 °F 0.3 °F 997.2 in ESE 7.1 mph 13.0 mph 93% 0.0 in WeatherDisplay:10.37 W/m2 FEW
08:19 1.3 °F 0.3 °F 997.2 in Calm   3.7 mph 93% 0.0 in WeatherDisplay:10.37 W/m2 FEW
08:22 1.3 °F 0.3 °F 997.2 in East 1.4 mph 5.6 mph 93% 0.0 in WeatherDisplay:10.37 W/m2 FEW
08:27 1.3 °F 0.3 °F 997.2 in NE 2.6 mph 5.6 mph 93% 0.0 in WeatherDisplay:10.37 W/m2 FEW
08:29 1.3 °F 0.3 °F 997.2 in Calm     93% 0.0 in WeatherDisplay:10.37 W/m2 FEW
08:33 1.3 °F 0.3 °F 997.2 in NE 0.2 mph 5.6 mph 93% 0.0 in WeatherDisplay:10.37 W/m2 FEW
08:34 1.4 °F 0.4 °F 997.2 in ENE 0.6 mph 4.8 mph 93% 0.0 in WeatherDisplay:10.37 W/m2 FEW
08:35 1.4 °F 0.4 °F 997.2 in ENE 3.5 mph 9.3 mph 93% 0.0 in WeatherDisplay:10.37 W/m2 FEW
08:40 1.4 °F 0.4 °F 997.2 in ENE 0.8 mph 6.4 mph 93% 0.0 in WeatherDisplay:10.37 W/m2 FEW
08:42 1.4 °F 0.4 °F 997.2 in East 4.0 mph 11.1 mph 93% 0.0 in WeatherDisplay:10.37 W/m2 FEW
08:44 1.4 °F 0.4 °F 997.2 in East 1.3 mph 7.4 mph 93% 0.0 in WeatherDisplay:10.37 W/m2 FEW
08:47 1.4 °F 0.4 °F 997.2 in East 0.5 mph 6.4 mph 93% 0.0 in WeatherDisplay:10.37 W/m2 FEW
08:50 1.4 °F 0.4 °F 997.2 in East 1.1 mph 5.6 mph 93% 0.0 in WeatherDisplay:10.37 W/m2 FEW
08:55 1.4 °F 0.4 °F 997.2 in East 0.2 mph 6.4 mph 93% 0.0 in WeatherDisplay:10.37 W/m2 FEW
08:57 1.4 °F 0.4 °F 997.2 in East 1.6 mph 11.1 mph 93% 0.0 in WeatherDisplay:10.37 W/m2 FEW
09:07 1.4 °F 0.4 °F 997.5 in East 3.2 mph 12.9 mph 93% 0.0 in WeatherDisplay:10.37 W/m2 FEW
09:10 1.4 °F 0.4 °F 997.5 in ESE 2.3 mph 6.4 mph 93% 0.0 in WeatherDisplay:10.37 W/m2 FEW
09:15 1.5 °F 0.5 °F 997.5 in ESE 2.6 mph 9.3 mph 93% 0.0 in WeatherDisplay:10.37 W/m2 FEW
09:20 1.5 °F 0.5 °F 997.5 in Calm   5.6 mph 93% 0.0 in WeatherDisplay:10.37 W/m2 FEW
09:23 1.5 °F 0.5 °F 997.5 in Calm     93% 0.0 in WeatherDisplay:10.37 W/m2 FEW
09:28 1.6 °F 0.6 °F 997.5 in ESE 6.8 mph 14.8 mph 93% 0.0 in WeatherDisplay:10.37 W/m2 FEW
09:29 1.6 °F 0.6 °F 997.5 in ESE 1.0 mph 5.6 mph 93% 0.0 in WeatherDisplay:10.37 W/m2 FEW
09:32 1.6 °F 0.6 °F 997.5 in SE 3.7 mph 16.1 mph 93% 0.0 in WeatherDisplay:10.37 W/m2 FEW
09:35 1.6 °F 0.6 °F 997.5 in ESE 0.3 mph 5.6 mph 93% 0.0 in WeatherDisplay:10.37 W/m2 FEW
09:40 1.6 °F 0.6 °F 997.9 in East 4.3 mph 11.1 mph 93% 0.0 in WeatherDisplay:10.37 W/m2 FEW
09:45 1.6 °F 0.6 °F 997.9 in ESE 5.6 mph 11.1 mph 93% 0.0 in WeatherDisplay:10.37 W/m2 FEW
09:47 1.6 °F 0.6 °F 997.9 in ESE 1.3 mph 7.4 mph 93% 0.0 in WeatherDisplay:10.37 W/m2 FEW
09:52 1.6 °F 0.6 °F 997.9 in ENE 3.9 mph 9.3 mph 93% 0.0 in WeatherDisplay:10.37 W/m2 FEW
09:56 1.6 °F 0.6 °F 997.9 in ESE 1.6 mph 9.7 mph 93% 0.0 in WeatherDisplay:10.37 W/m2 FEW
10:01 1.6 °F 0.6 °F 997.9 in East 0.3 mph 5.6 mph 93% 0.0 in WeatherDisplay:10.37 W/m2 FEW
10:05 1.7 °F 0.7 °F 997.9 in East 1.9 mph 5.6 mph 93% 0.0 in WeatherDisplay:10.37 W/m2 FEW
10:11 1.7 °F 0.7 °F 997.9 in SE 6.9 mph 13.0 mph 93% 0.0 in WeatherDisplay:10.37 W/m2 FEW
10:17 1.6 °F 0.6 °F 997.9 in SSE 4.2 mph 11.1 mph 93% 0.0 in WeatherDisplay:10.37 W/m2 FEW
10:22 1.6 °F 0.6 °F 997.9 in ESE 4.0 mph 9.3 mph 93% 0.0 in WeatherDisplay:10.37 W/m2 FEW
10:30 1.6 °F 0.6 °F 997.9 in East 5.0 mph 7.4 mph 93% 0.0 in WeatherDisplay:10.37 W/m2 FEW
10:35 1.6 °F 0.6 °F 997.9 in East 0.8 mph 5.6 mph 93% 0.0 in WeatherDisplay:10.37 W/m2 FEW
10:38 1.6 °F 0.6 °F 997.9 in SE 0.6 mph 5.6 mph 93% 0.0 in WeatherDisplay:10.37 W/m2 FEW
10:46 1.6 °F 0.6 °F 997.9 in ESE 3.9 mph 9.3 mph 93% 0.0 in WeatherDisplay:10.37 W/m2 FEW
10:51 1.6 °F 0.6 °F 997.9 in ESE 1.0 mph 5.6 mph 93% 0.0 in WeatherDisplay:10.37 W/m2 FEW
10:56 1.6 °F 0.6 °F 997.9 in Calm     93% 0.0 in WeatherDisplay:10.37 W/m2 FEW
11:01 1.6 °F 0.6 °F 997.5 in ESE 1.6 mph 9.3 mph 93% 0.0 in WeatherDisplay:10.37 W/m2 FEW
11:07 1.7 °F 0.7 °F 997.5 in SW 1.0 mph 5.6 mph 93% 0.0 in WeatherDisplay:10.37 W/m2 FEW
11:11 1.7 °F 0.7 °F 997.5 in SSE 8.5 mph 11.1 mph 93% 0.0 in WeatherDisplay:10.37 W/m2 FEW
11:14 1.7 °F 0.7 °F 997.5 in East 5.8 mph 13.0 mph 93% 0.0 in WeatherDisplay:10.37 W/m2 FEW
11:16 1.7 °F 0.7 °F 997.5 in ESE 3.5 mph 11.1 mph 93% 0.0 in WeatherDisplay:10.37 W/m2 FEW
11:21 1.7 °F 0.7 °F 997.5 in Calm   5.6 mph 93% 0.0 in WeatherDisplay:10.37 W/m2 FEW
11:26 1.7 °F 0.7 °F 997.5 in East 4.0 mph 9.3 mph 93% 0.0 in WeatherDisplay:10.37 W/m2 FEW
11:32 1.7 °F 0.7 °F 997.5 in ESE 3.9 mph 7.4 mph 93% 0.0 in WeatherDisplay:10.37 W/m2 FEW
11:37 1.7 °F 0.7 °F 997.5 in ESE 2.6 mph 3.7 mph 93% 0.0 in WeatherDisplay:10.37 W/m2 FEW
11:42 1.8 °F 0.8 °F 997.5 in Calm     93% 0.0 in WeatherDisplay:10.37 W/m2 FEW
11:47 1.7 °F 0.7 °F 997.5 in ESE 1.6 mph 5.6 mph 93% 0.0 in WeatherDisplay:10.37 W/m2 FEW
11:51 1.7 °F 0.7 °F 997.5 in East 2.3 mph 5.6 mph 93% 0.0 in WeatherDisplay:10.37 W/m2 FEW
11:56 1.8 °F 0.8 °F 997.5 in East 0.8 mph 3.7 mph 93% 0.0 in WeatherDisplay:10.37 W/m2 FEW
11:58 1.8 °F 0.8 °F 997.5 in East 1.1 mph 3.7 mph 93% 0.0 in WeatherDisplay:10.37 W/m2 FEW
12:01 1.8 °F 0.8 °F 997.2 in Calm   5.6 mph 93% 0.0 in WeatherDisplay:10.37 W/m2 FEW
12:06 1.8 °F 0.8 °F 997.2 in East 0.3 mph 6.4 mph 93% 0.0 in WeatherDisplay:10.37 W/m2 FEW
12:09 1.8 °F 0.8 °F 997.2 in East 3.4 mph 9.3 mph 93% 0.0 in WeatherDisplay:10.37 W/m2 FEW
12:13 1.8 °F 0.8 °F 997.2 in ESE 4.0 mph 9.7 mph 93% 0.0 in WeatherDisplay:10.37 W/m2 FEW
12:18 1.8 °F 0.9 °F 997.2 in ESE 5.5 mph 11.1 mph 94% 0.0 in WeatherDisplay:10.37 W/m2 FEW
12:23 1.8 °F 0.9 °F 997.2 in East 1.9 mph 7.4 mph 94% 0.0 in WeatherDisplay:10.37 W/m2 FEW
12:28 1.8 °F 0.9 °F 997.2 in East 1.6 mph 5.6 mph 94% 0.0 in WeatherDisplay:10.37 W/m2 FEW
12:33 1.8 °F 0.9 °F 997.2 in East 1.0 mph 9.3 mph 94% 0.0 in WeatherDisplay:10.37 W/m2 FEW
12:38 1.8 °F 0.9 °F 997.2 in Calm   3.7 mph 94% 0.0 in WeatherDisplay:10.37 W/m2 FEW
12:39 1.9 °F 1.0 °F 997.2 in East 1.4 mph 5.6 mph 94% 0.0 in WeatherDisplay:10.37 W/m2 FEW
12:40 1.8 °F 0.9 °F 997.2 in East 1.8 mph 5.6 mph 94% 0.0 in WeatherDisplay:10.37 W/m2 FEW
12:45 1.9 °F 1.0 °F 997.2 in East 1.0 mph 5.6 mph 94% 0.0 in WeatherDisplay:10.37 W/m2 FEW
12:50 1.9 °F 1.0 °F 997.2 in ESE 1.9 mph 16.7 mph 94% 0.0 in WeatherDisplay:10.37 W/m2 FEW
12:52 1.9 °F 1.0 °F 997.2 in East 0.8 mph 5.6 mph 94% 0.0 in WeatherDisplay:10.37 W/m2 FEW
12:57 1.9 °F 1.0 °F 997.2 in ENE 6.9 mph 14.8 mph 94% 0.0 in WeatherDisplay:10.37 W/m2 FEW
13:02 1.9 °F 1.1 °F 997.2 in ESE 1.0 mph 9.3 mph 94% 0.0 in WeatherDisplay:10.37 W/m2 FEW
13:04 1.9 °F 1.1 °F 997.2 in East 5.5 mph 13.0 mph 94% 0.0 in WeatherDisplay:10.37 W/m2 FEW
13:09 1.9 °F 1.1 °F 996.8 in ESE 4.2 mph 5.6 mph 94% 0.0 in WeatherDisplay:10.37 W/m2 FEW
13:14 1.9 °F 1.1 °F 996.8 in Calm   5.6 mph 94% 0.0 in WeatherDisplay:10.37 W/m2 FEW
13:15 1.9 °F 1.1 °F 996.8 in East 1.4 mph 9.3 mph 94% 0.0 in WeatherDisplay:10.37 W/m2 FEW
13:20 1.9 °F 1.1 °F 996.8 in SE 6.6 mph 11.1 mph 94% 0.0 in WeatherDisplay:10.37 W/m2 FEW
13:24 1.9 °F 1.1 °F 996.8 in South 6.3 mph 6.3 mph 94% 0.0 in WeatherDisplay:10.37 W/m2 FEW
13:25 1.9 °F 1.1 °F 996.8 in East 5.1 mph 13.0 mph 94% 0.0 in WeatherDisplay:10.37 W/m2 FEW
13:30 1.9 °F 1.1 °F 996.8 in East 0.5 mph 6.4 mph 94% 0.0 in WeatherDisplay:10.37 W/m2 FEW
13:35 1.9 °F 1.1 °F 996.5 in SE 6.4 mph 11.1 mph 94% 0.0 in WeatherDisplay:10.37 W/m2 FEW
13:40 2.0 °F 1.1 °F 996.5 in ESE 5.8 mph 9.3 mph 94% 0.0 in WeatherDisplay:10.37 W/m2 FEW
13:45 2.0 °F 1.1 °F 996.5 in ENE 0.6 mph 5.6 mph 94% 0.0 in WeatherDisplay:10.37 W/m2 FEW
13:46 2.0 °F 1.1 °F 996.5 in ENE 0.6 mph 5.6 mph 94% 0.0 in WeatherDisplay:10.37 W/m2 FEW
13:51 2.0 °F 1.1 °F 996.5 in East 1.0 mph 5.6 mph 94% 0.0 in WeatherDisplay:10.37 W/m2 FEW
13:55 2.0 °F 1.1 °F 996.5 in ESE 1.8 mph 5.6 mph 94% 0.0 in WeatherDisplay:10.37 W/m2 FEW
14:00 2.0 °F 1.1 °F 996.5 in ESE 3.2 mph 9.3 mph 94% 0.0 in WeatherDisplay:10.37 W/m2 FEW
14:05 2.0 °F 1.1 °F 996.5 in East 3.4 mph 11.1 mph 94% 0.0 in WeatherDisplay:10.37 W/m2 FEW
14:07 2.0 °F 1.1 °F 996.5 in ESE 2.3 mph 5.6 mph 94% 0.0 in WeatherDisplay:10.37 W/m2 FEW
14:12 2.0 °F 1.1 °F 996.5 in East 2.6 mph 11.1 mph 94% 0.0 in WeatherDisplay:10.37 W/m2 FEW
14:17 2.0 °F 1.1 °F 996.5 in ESE 3.1 mph 7.4 mph 94% 0.0 in WeatherDisplay:10.37 W/m2 FEW
14:22 2.0 °F 1.1 °F 996.5 in SE 4.8 mph 16.1 mph 94% 0.0 in WeatherDisplay:10.37 W/m2 FEW
14:33 2.0 °F 1.1 °F 996.5 in East 6.6 mph 11.1 mph 94% 0.0 in WeatherDisplay:10.37 W/m2 FEW
14:38 2.1 °F 1.2 °F 996.5 in ENE 3.5 mph 7.4 mph 94% 0.0 in WeatherDisplay:10.37 W/m2 FEW
14:43 2.0 °F 1.1 °F 996.5 in East 3.7 mph 11.1 mph 94% 0.0 in WeatherDisplay:10.37 W/m2 FEW
14:48 2.0 °F 1.1 °F 996.5 in ESE 2.4 mph 5.6 mph 94% 0.0 in WeatherDisplay:10.37 W/m2 FEW
14:49 2.1 °F 1.2 °F 996.5 in ESE 3.1 mph 5.6 mph 94% 0.0 in WeatherDisplay:10.37 W/m2 FEW
14:54 2.1 °F 1.2 °F 996.5 in Calm     94% 0.0 in WeatherDisplay:10.37 W/m2 FEW
14:59 2.0 °F 1.1 °F 996.5 in East 0.3 mph 4.8 mph 94% 0.0 in WeatherDisplay:10.37 W/m2 FEW
15:00 2.0 °F 1.1 °F 996.5 in ESE 5.5 mph 13.0 mph 94% 0.0 in WeatherDisplay:10.37 W/m2 FEW
15:05 2.1 °F 1.2 °F 996.5 in ENE 6.0 mph 6.0 mph 94% 0.0 in WeatherDisplay:10.37 W/m2 FEW
15:09 2.1 °F 1.2 °F 996.5 in ESE 0.2 mph 9.3 mph 94% 0.0 in WeatherDisplay:10.37 W/m2 FEW
15:15 2.1 °F 1.2 °F 996.5 in East 1.6 mph 5.6 mph 94% 0.0 in WeatherDisplay:10.37 W/m2 FEW
15:23 2.1 °F 1.2 °F 996.2 in East 1.0 mph 5.6 mph 94% 0.0 in WeatherDisplay:10.37 W/m2 FEW
15:24 2.1 °F 1.2 °F 996.2 in East 1.4 mph 5.6 mph 94% 0.0 in WeatherDisplay:10.37 W/m2 FEW
15:29 2.1 °F 1.2 °F 996.2 in ESE 1.6 mph 5.6 mph 94% 0.0 in WeatherDisplay:10.37 W/m2 FEW
15:32 2.1 °F 1.2 °F 996.2 in ENE 2.1 mph 6.4 mph 94% 0.0 in WeatherDisplay:10.37 W/m2 FEW
15:37 2.2 °F 1.2 °F 996.2 in East 1.9 mph 5.6 mph 93% 0.0 in WeatherDisplay:10.37 W/m2 FEW
15:43 2.1 °F 1.1 °F 995.8 in East 1.1 mph 5.6 mph 93% 0.0 in WeatherDisplay:10.37 W/m2 FEW
15:47 2.1 °F 1.2 °F 995.8 in SE 4.8 mph 5.6 mph 94% 0.0 in WeatherDisplay:10.37 W/m2 FEW
15:53 2.1 °F 1.2 °F 995.8 in ESE 8.0 mph 16.7 mph 94% 0.0 in WeatherDisplay:10.37 W/m2 FEW
15:58 2.1 °F 1.2 °F 995.8 in ESE 1.6 mph 6.4 mph 94% 0.0 in WeatherDisplay:10.37 W/m2 FEW
16:02 2.1 °F 1.2 °F 995.8 in ESE 4.3 mph 11.1 mph 94% 0.0 in WeatherDisplay:10.37 W/m2 FEW
16:07 2.1 °F 1.2 °F 995.8 in ENE 1.8 mph 11.1 mph 94% 0.0 in WeatherDisplay:10.37 W/m2 FEW
16:13 2.1 °F 1.2 °F 995.8 in East 4.2 mph 9.3 mph 94% 0.0 in WeatherDisplay:10.37 W/m2 FEW
16:18 2.1 °F 1.2 °F 995.8 in SE 4.8 mph 13.0 mph 94% 0.0 in WeatherDisplay:10.37 W/m2 FEW
16:21 2.1 °F 1.2 °F 995.8 in East 2.9 mph 7.4 mph 94% 0.0 in WeatherDisplay:10.37 W/m2 FEW
16:26 2.1 °F 1.2 °F 995.8 in SE 6.0 mph 11.1 mph 94% 0.0 in WeatherDisplay:10.37 W/m2 FEW
16:27 2.1 °F 1.2 °F 995.8 in ESE 5.3 mph 7.4 mph 94% 0.0 in WeatherDisplay:10.37 W/m2 FEW
16:30 2.1 °F 1.2 °F 995.8 in ESE 4.5 mph 13.0 mph 94% 0.0 in WeatherDisplay:10.37 W/m2 FEW
16:35 2.1 °F 1.2 °F 995.8 in East 6.0 mph 13.0 mph 94% 0.0 in WeatherDisplay:10.37 W/m2 FEW
16:40 2.1 °F 1.2 °F 995.8 in ESE 0.8 mph 5.6 mph 94% 0.0 in WeatherDisplay:10.37 W/m2 FEW
16:43 2.1 °F 1.2 °F 995.8 in ESE 0.2 mph 1.9 mph 94% 0.0 in WeatherDisplay:10.37 W/m2 FEW
16:48 2.1 °F 1.2 °F 995.8 in ESE 6.0 mph 14.8 mph 94% 0.0 in WeatherDisplay:10.37 W/m2 FEW
16:50 2.1 °F 1.2 °F 995.8 in East 3.1 mph 13.0 mph 94% 0.0 in WeatherDisplay:10.37 W/m2 FEW
16:55 2.1 °F 1.2 °F 995.8 in ESE 8.8 mph 16.7 mph 94% 0.0 in WeatherDisplay:10.37 W/m2 FEW
16:57 2.2 °F 1.3 °F 995.5 in ESE 4.8 mph 9.3 mph 94% 0.0 in WeatherDisplay:10.37 W/m2 FEW
17:03 2.1 °F 1.2 °F 995.8 in ESE 5.3 mph 16.7 mph 94% 0.0 in WeatherDisplay:10.37 W/m2 FEW
17:08 2.2 °F 1.3 °F 995.5 in NE 2.9 mph 16.7 mph 94% 0.0 in WeatherDisplay:10.37 W/m2 FEW
17:10 2.2 °F 1.3 °F 995.5 in SE 9.7 mph 16.7 mph 94% 0.0 in WeatherDisplay:10.37 W/m2 FEW
17:11 2.2 °F 1.3 °F 995.5 in ESE 7.1 mph 14.8 mph 94% 0.0 in WeatherDisplay:10.37 W/m2 FEW
17:15 2.2 °F 1.3 °F 995.5 in SE 2.3 mph 5.6 mph 94% 0.0 in WeatherDisplay:10.37 W/m2 FEW
17:20 2.2 °F 1.3 °F 995.5 in SE 6.1 mph 14.8 mph 94% 0.0 in WeatherDisplay:10.37 W/m2 FEW
17:24 2.2 °F 1.3 °F 995.5 in East 5.3 mph 9.3 mph 94% 0.0 in WeatherDisplay:10.37 W/m2 FEW
17:29 2.2 °F 1.3 °F 995.5 in East 6.3 mph 13.0 mph 94% 0.0 in WeatherDisplay:10.37 W/m2 FEW
17:34 2.2 °F 1.3 °F 995.5 in ESE 4.0 mph 5.6 mph 94% 0.0 in WeatherDisplay:10.37 W/m2 FEW
17:39 2.2 °F 1.3 °F 995.5 in ESE 4.3 mph 11.1 mph 94% 0.0 in WeatherDisplay:10.37 W/m2 FEW
17:43 2.2 °F 1.3 °F 995.5 in East 8.5 mph 16.7 mph 94% 0.0 in WeatherDisplay:10.37 W/m2 FEW
17:48 2.2 °F 1.3 °F 995.1 in ESE 1.8 mph 5.6 mph 94% 0.0 in WeatherDisplay:10.37 W/m2 FEW
17:51 2.3 °F 1.4 °F 995.5 in SE 2.3 mph 9.3 mph 94% 0.0 in WeatherDisplay:10.37 W/m2 FEW
17:53 2.3 °F 1.4 °F 995.1 in ESE 5.8 mph 5.8 mph 94% 0.0 in WeatherDisplay:10.37 W/m2 FEW
17:54 2.3 °F 1.4 °F 995.1 in SE 6.6 mph 11.1 mph 94% 0.0 in WeatherDisplay:10.37 W/m2 FEW
17:56 2.3 °F 1.4 °F 995.5 in Calm     94% 0.0 in WeatherDisplay:10.37 W/m2 FEW
18:01 2.3 °F 1.4 °F 995.5 in SE 2.7 mph 6.4 mph 94% 0.0 in WeatherDisplay:10.37 W/m2 FEW
18:06 2.3 °F 1.4 °F 995.1 in East 3.7 mph 12.9 mph 94% 0.0 in WeatherDisplay:10.37 W/m2 FEW
18:09 2.3 °F 1.4 °F 995.1 in SSE 5.1 mph 11.1 mph 94% 0.0 in WeatherDisplay:10.37 W/m2 FEW
18:14 2.2 °F 1.3 °F 995.1 in SSE 4.3 mph 14.8 mph 94% 0.3 in WeatherDisplay:10.37 W/m2 RA
18:19 2.2 °F 1.3 °F 995.1 in ENE 5.1 mph 14.8 mph 94% 0.3 in WeatherDisplay:10.37 W/m2 RA
18:25 2.2 °F 1.3 °F 995.1 in NE 4.7 mph 11.1 mph 94% 0.3 in WeatherDisplay:10.37 W/m2 FEW
18:28 2.2 °F 1.3 °F 995.1 in ENE 0.3 mph 4.8 mph 94% 0.3 in WeatherDisplay:10.37 W/m2 FEW
18:33 2.2 °F 1.3 °F 995.1 in East 8.8 mph 18.5 mph 94% 0.3 in WeatherDisplay:10.37 W/m2 FEW
18:38 2.2 °F 1.3 °F 995.1 in East 2.9 mph 5.6 mph 94% 0.3 in WeatherDisplay:10.37 W/m2 FEW
18:39 2.2 °F 1.3 °F 995.1 in East 1.1 mph 5.6 mph 94% 0.3 in WeatherDisplay:10.37 W/m2 FEW
18:40 2.2 °F 1.3 °F 995.1 in ENE 7.6 mph 16.7 mph 94% 0.3 in WeatherDisplay:10.37 W/m2 FEW
18:44 2.2 °F 1.3 °F 995.1 in East 8.5 mph 18.5 mph 94% 0.3 in WeatherDisplay:10.37 W/m2 FEW
18:45 2.2 °F 1.3 °F 995.1 in East 5.3 mph 18.5 mph 94% 0.3 in WeatherDisplay:10.37 W/m2 FEW
18:47 2.2 °F 1.2 °F 995.1 in SE 5.1 mph 7.4 mph 93% 0.3 in WeatherDisplay:10.37 W/m2 FEW
18:48 2.3 °F 1.3 °F 995.1 in ESE 3.2 mph 9.3 mph 93% 0.3 in WeatherDisplay:10.37 W/m2 FEW
18:53 2.3 °F 1.3 °F 994.8 in ESE 7.9 mph 14.8 mph 93% 0.3 in WeatherDisplay:10.37 W/m2 FEW
18:58 2.3 °F 1.3 °F 994.8 in ESE 7.6 mph 13.0 mph 93% 0.3 in WeatherDisplay:10.37 W/m2 FEW
19:03 2.3 °F 1.3 °F 995.1 in ENE 1.9 mph 7.4 mph 93% 0.3 in WeatherDisplay:10.37 W/m2 FEW
19:04 2.3 °F 1.3 °F 994.8 in South 2.3 mph 5.6 mph 93% 0.3 in WeatherDisplay:10.37 W/m2 FEW
19:09 2.3 °F 1.3 °F 994.8 in ENE 6.6 mph 13.0 mph 93% 0.3 in WeatherDisplay:10.37 W/m2 FEW
19:14 2.2 °F 1.2 °F 994.8 in NE 3.1 mph 5.6 mph 93% 0.0 in WeatherDisplay:10.37 W/m2 FEW
19:19 2.3 °F 1.3 °F 994.8 in East 9.5 mph 18.5 mph 93% 0.0 in WeatherDisplay:10.37 W/m2 FEW
19:24 2.3 °F 1.3 °F 994.8 in ENE 6.3 mph 11.1 mph 93% 0.0 in WeatherDisplay:10.37 W/m2 FEW
19:30 2.3 °F 1.3 °F 994.8 in East 5.6 mph 13.0 mph 93% 0.0 in WeatherDisplay:10.37 W/m2 FEW
19:35 2.3 °F 1.3 °F 994.8 in ESE 2.3 mph 14.8 mph 93% 0.0 in WeatherDisplay:10.37 W/m2 FEW
19:41 2.3 °F 1.3 °F 994.8 in ESE 6.6 mph 11.1 mph 93% 0.0 in WeatherDisplay:10.37 W/m2 FEW
19:47 2.3 °F 1.3 °F 994.5 in ESE 5.0 mph 8.0 mph 93% 0.0 in WeatherDisplay:10.37 W/m2 FEW
19:52 2.3 °F 1.3 °F 994.5 in ENE 0.2 mph 5.6 mph 93% 0.0 in WeatherDisplay:10.37 W/m2 FEW
19:53 2.3 °F 1.3 °F 994.5 in ENE 4.7 mph 16.7 mph 93% 0.0 in WeatherDisplay:10.37 W/m2 FEW
19:59 2.3 °F 1.3 °F 994.5 in ENE 7.1 mph 16.7 mph 93% 0.0 in WeatherDisplay:10.37 W/m2 FEW
20:02 2.3 °F 1.3 °F 994.5 in ESE 2.3 mph 7.4 mph 93% 0.0 in WeatherDisplay:10.37 W/m2 FEW
20:07 2.3 °F 1.3 °F 994.5 in ESE 2.3 mph 9.3 mph 93% 0.0 in WeatherDisplay:10.37 W/m2 FEW
20:13 2.4 °F 1.4 °F 994.5 in SE 3.2 mph 9.3 mph 93% 0.0 in WeatherDisplay:10.37 W/m2 FEW
20:16 2.4 °F 1.4 °F 994.5 in ESE 2.6 mph 6.4 mph 93% 0.0 in WeatherDisplay:10.37 W/m2 FEW
20:22 2.4 °F 1.4 °F 994.5 in South 3.7 mph 11.1 mph 93% 0.3 in WeatherDisplay:10.37 W/m2 RA
20:27 2.4 °F 1.4 °F 994.1 in ENE 2.7 mph 5.6 mph 93% 0.3 in WeatherDisplay:10.37 W/m2 RA
20:29 2.4 °F 1.4 °F 994.1 in SSE 4.3 mph 11.1 mph 93% 0.3 in WeatherDisplay:10.37 W/m2 FEW
20:35 2.4 °F 1.4 °F 994.1 in ENE 1.6 mph 6.4 mph 93% 0.3 in WeatherDisplay:10.37 W/m2 FEW
20:40 2.4 °F 1.4 °F 994.1 in East 6.9 mph 13.0 mph 93% 0.3 in WeatherDisplay:10.37 W/m2 FEW
20:43 2.4 °F 1.4 °F 994.1 in South 10.1 mph 14.5 mph 93% 0.3 in WeatherDisplay:10.37 W/m2 FEW
20:49 2.4 °F 1.4 °F 994.1 in SE 10.9 mph 18.5 mph 93% 0.3 in WeatherDisplay:10.37 W/m2 FEW
20:54 2.4 °F 1.4 °F 994.1 in East 3.4 mph 5.6 mph 93% 0.3 in WeatherDisplay:10.37 W/m2 FEW
20:59 2.4 °F 1.4 °F 993.8 in ESE 8.5 mph 14.8 mph 93% 0.3 in WeatherDisplay:10.37 W/m2 FEW
21:04 2.4 °F 1.4 °F 993.8 in SE 8.5 mph 14.8 mph 93% 0.3 in WeatherDisplay:10.37 W/m2 FEW
21:10 2.4 °F 1.4 °F 993.8 in East 2.4 mph 9.3 mph 93% 0.3 in WeatherDisplay:10.37 W/m2 FEW
21:15 2.4 °F 1.4 °F 993.8 in ESE 5.3 mph 9.7 mph 93% 0.3 in WeatherDisplay:10.37 W/m2 FEW
21:20 2.4 °F 1.4 °F 993.8 in East 5.0 mph 7.4 mph 93% 0.0 in WeatherDisplay:10.37 W/m2 FEW
21:26 2.4 °F 1.4 °F 993.8 in SSE 4.3 mph 9.3 mph 93% 0.0 in WeatherDisplay:10.37 W/m2 FEW
21:31 2.4 °F 1.4 °F 993.8 in ENE 0.3 mph 3.7 mph 93% 0.0 in WeatherDisplay:10.37 W/m2 FEW
21:36 2.4 °F 1.4 °F 993.8 in SSW 4.0 mph 11.1 mph 93% 0.0 in WeatherDisplay:10.37 W/m2 FEW
21:43 2.4 °F 1.4 °F 993.8 in East 1.1 mph 6.4 mph 93% 0.0 in WeatherDisplay:10.37 W/m2 FEW
21:49 2.5 °F 1.5 °F 993.8 in ESE 3.7 mph 18.5 mph 93% 0.0 in WeatherDisplay:10.37 W/m2 FEW
21:54 2.5 °F 1.5 °F 993.8 in East 4.5 mph 6.4 mph 93% 0.0 in WeatherDisplay:10.37 W/m2 FEW
21:59 2.5 °F 1.5 °F 993.8 in ESE 5.5 mph 11.1 mph 93% 0.0 in WeatherDisplay:10.37 W/m2 FEW
22:04 2.5 °F 1.5 °F 993.8 in ESE 4.0 mph 5.6 mph 93% 0.0 in WeatherDisplay:10.37 W/m2 FEW
22:09 2.6 °F 1.6 °F 993.5 in East 6.3 mph 13.0 mph 93% 0.0 in WeatherDisplay:10.37 W/m2 FEW
22:14 2.6 °F 1.6 °F 993.5 in ESE 3.9 mph 9.3 mph 93% 0.0 in WeatherDisplay:10.37 W/m2 FEW
22:19 2.6 °F 1.6 °F 993.5 in ESE 3.4 mph 7.4 mph 93% 0.0 in WeatherDisplay:10.37 W/m2 FEW
22:21 2.6 °F 1.6 °F 993.5 in ESE 4.5 mph 16.7 mph 93% 0.0 in WeatherDisplay:10.37 W/m2 FEW
22:28 2.6 °F 1.6 °F 993.5 in SE 7.9 mph 16.7 mph 93% 0.0 in WeatherDisplay:10.37 W/m2 FEW
22:32 2.6 °F 1.6 °F 993.5 in ESE 7.4 mph 9.7 mph 93% 0.0 in WeatherDisplay:10.37 W/m2 FEW
22:37 2.6 °F 1.6 °F 993.5 in SE 2.6 mph 12.9 mph 93% 0.0 in WeatherDisplay:10.37 W/m2 FEW
22:38 2.6 °F 1.6 °F 993.5 in SE 4.3 mph 13.0 mph 93% 0.0 in WeatherDisplay:10.37 W/m2 FEW
22:43 2.7 °F 1.7 °F 993.5 in ENE 6.1 mph 13.0 mph 93% 0.0 in WeatherDisplay:10.37 W/m2 FEW
22:45 2.7 °F 1.7 °F 993.1 in East 1.1 mph 9.3 mph 93% 0.0 in WeatherDisplay:10.37 W/m2 FEW
22:50 2.7 °F 1.7 °F 993.1 in SE 5.5 mph 8.0 mph 93% 0.0 in WeatherDisplay:10.37 W/m2 FEW
22:56 2.7 °F 1.7 °F 993.1 in SE 8.7 mph 14.8 mph 93% 0.0 in WeatherDisplay:10.37 W/m2 FEW
23:15 2.7 °F 1.7 °F 993.1 in ESE 3.4 mph 4.8 mph 93% 0.5 in WeatherDisplay:10.37 W/m2 RA
23:29 2.7 °F 1.7 °F 993.1 in Calm     93% 0.8 in WeatherDisplay:10.37 W/m2 RA
23:33 2.6 °F 1.6 °F 992.8 in East 8.5 mph 14.8 mph 93% 1.0 in WeatherDisplay:10.37 W/m2 RA
23:43 2.6 °F 1.6 °F 992.8 in Calm     93% 1.5 in WeatherDisplay:10.37 W/m2 RA
23:44 2.6 °F 1.6 °F 992.8 in SE 0.2 mph 5.6 mph 93% 1.5 in WeatherDisplay:10.37 W/m2 RA
23:46 2.6 °F 1.6 °F 992.8 in East 5.0 mph 13.0 mph 93% 1.5 in WeatherDisplay:10.37 W/m2 RA
23:47 2.6 °F 1.6 °F 992.8 in ESE 4.2 mph 5.6 mph 93% 1.5 in WeatherDisplay:10.37 W/m2 RA
23:50 2.6 °F 1.6 °F 992.8 in East 7.9 mph 14.8 mph 93% 1.5 in WeatherDisplay:10.37 W/m2 RA
23:52 2.6 °F 1.6 °F 992.8 in ENE 4.5 mph 20.4 mph 93% 1.5 in WeatherDisplay:10.37 W/m2 RA
23:53 2.5 °F 1.5 °F 992.8 in South 0.3 mph 8.0 mph 93% 1.5 in WeatherDisplay:10.37 W/m2 RA
23:56 2.5 °F 1.5 °F 992.8 in SE 7.6 mph 7.6 mph 93% 1.8 in WeatherDisplay:10.37 W/m2 RA
23:58 2.5 °F 1.5 °F 992.8 in East 9.3 mph 18.5 mph 93% 2.0 in WeatherDisplay:10.37 W/m2 RA
23:59 2.4 °F 1.4 °F 992.8 in ESE 5.1 mph 11.1 mph 93% 1.8 in WeatherDisplay:10.37 W/m2 RA
Tuulensuunkaari, Veikkola, Suomi
Compliments of Weather Underground - 2.75 mb